Terminal Aerodrome Forecast
Issued by NWS

Home | Current Version | Previous Version | Text Only | Print | Product List | Glossary On
Versions: 1 2 3 4 5 6 7 8 9 10 11 12 13 14 15 16 17
000
FTAK31 PAJN 010500
TAFAJN
TAF
PAJN 010520Z 0106/0206 VRB05KT P6SM FEW040 BKN060 OVC080
     FM011800 24007KT P6SM SCT035 OVC060
     FM020200 VRB05KT P6SM -RA BKN025 OVC050=

USA.gov is the U.S. government's official web portal to all federal, state and local government web resources and services.